createdAt,value
2018-06-05T00:01:35.290Z,95.90
2018-06-05T00:04:03.396Z,95.80
2018-06-05T00:06:31.442Z,95.80
2018-06-05T00:08:59.725Z,95.60
2018-06-05T00:11:28.001Z,95.50
2018-06-05T00:13:56.059Z,95.40
2018-06-05T00:16:25.159Z,95.30
2018-06-05T00:18:53.216Z,95.20
2018-06-05T00:21:21.477Z,95.20
2018-06-05T00:23:49.378Z,95.10
2018-06-05T00:26:17.617Z,94.90
2018-06-05T00:28:46.131Z,94.70
2018-06-05T00:31:15.800Z,94.40
2018-06-05T00:33:44.095Z,94.30
2018-06-05T00:36:12.623Z,93.90
2018-06-05T00:38:40.767Z,93.80
2018-06-05T00:41:08.941Z,93.70
2018-06-05T00:43:37.008Z,93.80
2018-06-05T00:46:05.274Z,93.50
2018-06-05T00:48:33.183Z,93.40
2018-06-05T00:51:08.466Z,93.40
2018-06-05T00:53:36.458Z,93.60
2018-06-05T00:56:04.696Z,93.70
2018-06-05T00:58:34.223Z,93.50
2018-06-05T01:01:02.439Z,93.60
2018-06-05T01:03:30.571Z,93.70
2018-06-05T01:10:54.583Z,93.60
2018-06-05T01:13:23.064Z,93.80
2018-06-05T01:15:50.981Z,93.80
2018-06-05T01:18:19.004Z,93.90
2018-06-05T01:20:47.266Z,93.80
2018-06-05T01:23:15.961Z,93.60
2018-06-05T01:25:44.029Z,93.80
2018-06-05T01:28:12.310Z,93.70
2018-06-05T01:30:40.756Z,93.40
2018-06-05T01:33:08.840Z,93.30
2018-06-05T01:35:36.911Z,93.20
2018-06-05T01:38:05.420Z,93.20
2018-06-05T01:40:33.673Z,93.20
2018-06-05T01:43:01.757Z,93.10
2018-06-05T01:45:30.222Z,92.90
2018-06-05T01:47:58.165Z,92.90
2018-06-05T01:50:27.471Z,93.10
2018-06-05T01:52:55.452Z,93.20
2018-06-05T01:55:23.736Z,93.10
2018-06-05T01:57:51.990Z,93.30
2018-06-05T02:00:20.287Z,93.20
2018-06-05T02:02:48.608Z,93.20
2018-06-05T02:05:18.056Z,93.10
2018-06-05T02:07:46.345Z,92.90
2018-06-05T02:10:14.407Z,93.00
2018-06-05T02:12:42.677Z,93.40
2018-06-05T02:15:10.762Z,93.20
2018-06-05T02:17:38.856Z,93.10
2018-06-05T02:20:06.897Z,93.10
2018-06-05T02:22:35.362Z,93.30
2018-06-05T02:25:03.274Z,93.30
2018-06-05T02:27:31.300Z,93.50
2018-06-05T02:29:59.576Z,93.50
2018-06-05T02:32:27.881Z,93.50
2018-06-05T02:34:55.950Z,93.50
2018-06-05T02:37:24.186Z,93.30
2018-06-05T02:39:52.300Z,93.20
2018-06-05T02:42:20.189Z,93.30
2018-06-05T02:44:48.189Z,93.20
2018-06-05T02:47:16.500Z,93.20
2018-06-05T02:49:44.768Z,93.30
2018-06-05T02:52:12.692Z,93.30
2018-06-05T02:57:10.195Z,93.40
2018-06-05T02:59:38.203Z,93.40
2018-06-05T03:04:34.640Z,93.20
2018-06-05T03:07:03.093Z,93.30
2018-06-05T03:09:31.411Z,93.30
2018-06-05T03:11:59.356Z,93.10
2018-06-05T03:14:27.744Z,93.20
2018-06-05T03:16:56.012Z,93.20
2018-06-05T03:19:24.347Z,93.20
2018-06-05T03:21:52.327Z,93.10
2018-06-05T03:24:20.275Z,93.10
2018-06-05T03:26:48.295Z,93.00
2018-06-05T03:29:16.388Z,93.00
2018-06-05T03:31:44.305Z,93.10
2018-06-05T03:34:12.301Z,93.30
2018-06-05T03:36:40.216Z,93.30
2018-06-05T03:39:08.334Z,93.20
2018-06-05T03:41:36.609Z,93.20
2018-06-05T03:44:04.563Z,93.30
2018-06-05T03:46:32.807Z,93.50
2018-06-05T03:49:04.643Z,93.40
2018-06-05T03:51:32.594Z,93.40
2018-06-05T03:54:00.528Z,93.40
2018-06-05T03:56:28.460Z,93.30
2018-06-05T03:58:56.482Z,93.30
2018-06-05T04:01:24.736Z,93.30
2018-06-05T04:03:52.810Z,93.00
2018-06-05T04:06:20.767Z,93.40
2018-06-05T04:08:48.765Z,93.30
2018-06-05T04:11:16.816Z,93.30
2018-06-05T04:13:44.932Z,93.30
2018-06-05T04:16:12.848Z,93.30
2018-06-05T04:18:41.259Z,93.10
2018-06-05T04:21:09.567Z,93.00
2018-06-05T04:23:37.609Z,93.10
2018-06-05T04:26:05.858Z,93.10
2018-06-05T04:28:34.963Z,93.40
2018-06-05T04:31:03.063Z,93.00
2018-06-05T04:33:31.516Z,93.10
2018-06-05T04:35:59.457Z,93.10
2018-06-05T04:38:28.084Z,92.80
2018-06-05T04:40:56.353Z,92.70
2018-06-05T04:43:24.504Z,92.90
2018-06-05T04:45:53.086Z,92.90
2018-06-05T04:48:21.374Z,92.60
2018-06-05T04:50:49.259Z,92.60
2018-06-05T04:53:17.422Z,92.60
2018-06-05T04:55:45.330Z,92.60
2018-06-05T05:00:41.178Z,92.60
2018-06-05T05:03:09.568Z,92.40
2018-06-05T05:05:37.496Z,92.50
2018-06-05T05:08:05.657Z,92.80
2018-06-05T05:10:33.992Z,92.20
2018-06-05T05:13:02.304Z,92.40
2018-06-05T05:15:30.358Z,92.50
2018-06-05T05:17:58.627Z,92.30
2018-06-05T05:20:26.905Z,92.30
2018-06-05T05:22:55.074Z,92.40
2018-06-05T05:25:23.146Z,92.40
2018-06-05T05:27:51.214Z,92.50
2018-06-05T05:30:19.079Z,92.30
2018-06-05T05:32:47.459Z,92.20
2018-06-05T05:35:15.377Z,92.20
2018-06-05T05:37:43.387Z,92.30
2018-06-05T05:40:11.357Z,92.10
2018-06-05T05:42:39.489Z,92.00
2018-06-05T05:45:07.827Z,92.10
2018-06-05T05:47:35.904Z,92.10
2018-06-05T05:50:04.030Z,92.00
2018-06-05T05:52:32.440Z,91.90
2018-06-05T05:55:00.733Z,91.80
2018-06-05T05:57:28.774Z,91.70
2018-06-05T05:59:57.052Z,91.70
2018-06-05T06:02:25.153Z,91.60
2018-06-05T06:04:53.225Z,91.50
2018-06-05T06:07:21.273Z,91.50
2018-06-05T06:09:50.654Z,91.60
2018-06-05T06:12:19.268Z,91.40
2018-06-05T06:14:47.571Z,91.20
2018-06-05T06:17:15.867Z,91.10
2018-06-05T06:19:43.742Z,91.20
2018-06-05T06:22:11.760Z,91.00
2018-06-05T06:24:40.045Z,91.00
2018-06-05T06:27:08.113Z,91.20
2018-06-05T06:29:36.371Z,90.90
2018-06-05T06:32:04.470Z,90.70
2018-06-05T06:34:32.931Z,90.80
2018-06-05T06:37:02.216Z,90.90
2018-06-05T06:39:30.516Z,90.80
2018-06-05T06:41:58.582Z,90.60
2018-06-05T06:44:26.827Z,90.20
2018-06-05T06:46:54.922Z,90.40
2018-06-05T06:49:22.988Z,90.70
2018-06-05T06:51:51.067Z,90.80
2018-06-05T06:54:19.121Z,90.50
2018-06-05T06:56:47.198Z,90.20
2018-06-05T06:59:15.460Z,90.20
2018-06-05T07:01:43.741Z,90.70
2018-06-05T07:04:11.820Z,90.20
2018-06-05T07:06:40.065Z,90.30
2018-06-05T07:09:08.378Z,90.20
2018-06-05T07:11:37.420Z,90.50
2018-06-05T07:14:05.575Z,90.10
2018-06-05T07:16:33.492Z,90.30
2018-06-05T07:19:01.695Z,90.30
2018-06-05T07:21:29.756Z,90.30
2018-06-05T07:23:57.825Z,90.30
2018-06-05T07:26:26.103Z,90.60
2018-06-05T07:28:53.972Z,90.30
2018-06-05T07:31:21.984Z,90.20
2018-06-05T07:33:49.902Z,90.50
2018-06-05T07:36:17.945Z,90.50
2018-06-05T07:38:46.269Z,89.40
2018-06-05T07:41:14.256Z,89.70
2018-06-05T07:46:10.285Z,89.90
2018-06-05T07:48:38.311Z,90.40
2018-06-05T07:51:06.331Z,90.70
2018-06-05T07:56:02.321Z,91.30
2018-06-05T07:58:30.205Z,91.10
2018-06-05T08:00:58.282Z,91.20
2018-06-05T08:03:26.167Z,91.30
2018-06-05T08:05:54.464Z,91.70
2018-06-05T08:08:22.598Z,91.90
2018-06-05T08:10:50.599Z,91.70
2018-06-05T08:13:19.893Z,91.70
2018-06-05T08:15:48.521Z,91.90
2018-06-05T08:18:16.678Z,92.00
2018-06-05T08:20:48.754Z,91.80
2018-06-05T08:23:17.055Z,91.60
2018-06-05T08:25:46.096Z,91.70
2018-06-05T08:28:14.202Z,91.60
2018-06-05T08:30:42.488Z,91.80
2018-06-05T08:33:10.745Z,92.00
2018-06-05T08:35:38.945Z,91.80
2018-06-05T08:38:07.124Z,91.80
2018-06-05T08:40:35.213Z,91.50
2018-06-05T08:43:03.226Z,91.40
2018-06-05T08:45:31.273Z,91.30
2018-06-05T08:47:59.173Z,91.10
2018-06-05T08:50:27.437Z,91.40
2018-06-05T08:52:55.522Z,91.50
2018-06-05T08:55:24.868Z,91.20
2018-06-05T08:57:52.901Z,91.40
2018-06-05T09:00:20.915Z,91.70
2018-06-05T09:02:49.141Z,91.70
2018-06-05T09:05:17.404Z,91.80
2018-06-05T09:07:45.366Z,91.90
2018-06-05T09:10:14.138Z,91.80
2018-06-05T09:15:10.399Z,91.90
2018-06-05T09:17:38.284Z,91.80
2018-06-05T09:20:06.999Z,91.70
2018-06-05T09:22:34.968Z,91.70
2018-06-05T09:27:32.622Z,91.90
2018-06-05T09:30:00.884Z,91.70
2018-06-05T09:32:28.819Z,91.80
2018-06-05T09:34:57.237Z,91.80
2018-06-05T09:37:25.281Z,91.70
2018-06-05T09:39:53.225Z,91.50
2018-06-05T09:42:21.496Z,91.50
2018-06-05T09:44:49.712Z,91.60
2018-06-05T09:47:17.783Z,91.40
2018-06-05T09:49:45.898Z,91.40
2018-06-05T09:52:14.130Z,91.40
2018-06-05T09:54:42.415Z,91.50
2018-06-05T09:57:10.767Z,91.50
2018-06-05T09:59:38.799Z,91.50
2018-06-05T10:02:07.081Z,91.80
2018-06-05T10:04:35.222Z,91.40
2018-06-05T10:09:31.011Z,91.20
2018-06-05T10:11:59.099Z,91.20
2018-06-05T10:14:28.392Z,91.30
2018-06-05T10:16:56.526Z,91.40
2018-06-05T10:19:24.745Z,91.60
2018-06-05T10:21:53.465Z,91.70
2018-06-05T10:24:21.809Z,92.10
2018-06-05T10:26:49.799Z,91.90
2018-06-05T10:29:18.246Z,92.10
2018-06-05T10:31:46.340Z,91.90
2018-06-05T10:34:14.749Z,91.80
2018-06-05T10:36:42.688Z,91.60
2018-06-05T10:39:16.884Z,91.50
2018-06-05T10:41:44.973Z,91.50
2018-06-05T10:44:13.029Z,91.30
2018-06-05T10:46:40.985Z,91.50
2018-06-05T10:49:09.090Z,91.70
2018-06-05T10:51:37.002Z,91.40
2018-06-05T10:54:05.142Z,91.30
2018-06-05T10:56:33.163Z,90.50
2018-06-05T10:59:01.231Z,90.50
2018-06-05T11:01:29.318Z,90.40
2018-06-05T11:03:57.580Z,90.00
2018-06-05T11:06:25.865Z,89.90
2018-06-05T11:08:54.173Z,89.30
2018-06-05T11:11:22.427Z,90.10
2018-06-05T11:13:50.702Z,90.00
2018-06-05T11:16:18.602Z,90.10
2018-06-05T11:18:46.748Z,90.20
2018-06-05T11:21:15.105Z,90.20
2018-06-05T11:23:43.402Z,90.50
2018-06-05T11:26:11.881Z,90.50
2018-06-05T11:28:42.210Z,90.20
2018-06-05T11:31:10.489Z,90.20
2018-06-05T11:33:38.757Z,90.30
2018-06-05T11:36:07.054Z,90.30
2018-06-05T11:38:36.411Z,90.00
2018-06-05T11:41:04.677Z,90.10
2018-06-05T11:43:34.693Z,90.00
2018-06-05T11:48:30.811Z,89.60
2018-06-05T11:50:58.776Z,89.40
2018-06-05T11:53:27.263Z,89.10
2018-06-05T11:55:55.273Z,88.60
2018-06-05T11:58:23.253Z,89.20
2018-06-05T12:00:51.254Z,88.00
2018-06-05T12:03:19.722Z,88.50
2018-06-05T12:05:47.747Z,88.60
2018-06-05T12:08:15.869Z,88.60
2018-06-05T12:10:43.931Z,88.80
2018-06-05T12:13:12.964Z,88.70
2018-06-05T12:15:41.270Z,89.10
2018-06-05T12:18:09.351Z,88.80
2018-06-05T12:20:37.259Z,89.00
2018-06-05T12:23:05.510Z,88.90
2018-06-05T12:25:33.904Z,88.00
2018-06-05T12:28:02.306Z,88.00
2018-06-05T12:30:30.811Z,87.60
2018-06-05T12:32:59.267Z,87.00
2018-06-05T12:35:27.522Z,87.90
2018-06-05T12:37:55.977Z,88.00
2018-06-05T12:40:24.263Z,86.20
2018-06-05T12:42:52.723Z,86.80
2018-06-05T12:45:21.079Z,85.90
2018-06-05T12:47:49.253Z,85.10
2018-06-05T12:50:17.345Z,84.40
2018-06-05T12:52:45.623Z,84.80
2018-06-05T12:55:13.706Z,85.40
2018-06-05T12:57:41.795Z,85.50
2018-06-05T13:00:09.824Z,85.50
2018-06-05T13:02:38.140Z,86.00
2018-06-05T13:05:06.210Z,85.10
2018-06-05T13:07:34.705Z,84.80
2018-06-05T13:10:02.950Z,84.50
2018-06-05T13:12:31.455Z,84.30
2018-06-05T13:14:59.694Z,84.40
2018-06-05T13:17:27.816Z,84.30
2018-06-05T13:19:55.877Z,84.80
2018-06-05T13:22:24.329Z,85.60
2018-06-05T13:24:52.390Z,85.00
2018-06-05T13:27:20.460Z,85.20
2018-06-05T13:29:48.349Z,83.90
2018-06-05T13:32:16.613Z,83.20
2018-06-05T13:34:44.547Z,83.60
2018-06-05T13:37:12.786Z,84.40
2018-06-05T13:39:40.696Z,84.00
2018-06-05T13:42:09.063Z,83.40
2018-06-05T13:44:37.369Z,82.10
2018-06-05T13:47:05.475Z,83.40
2018-06-05T13:49:33.488Z,81.90
2018-06-05T13:52:01.791Z,82.50
2018-06-05T13:54:30.111Z,81.30
2018-06-05T13:56:58.341Z,80.90
2018-06-05T13:59:26.417Z,80.80
2018-06-05T14:01:54.614Z,81.50
2018-06-05T14:04:22.950Z,81.30
2018-06-05T14:06:51.445Z,80.70
2018-06-05T14:09:19.787Z,80.60
2018-06-05T14:11:47.999Z,80.10
2018-06-05T14:14:16.038Z,80.40
2018-06-05T14:16:44.012Z,79.80
2018-06-05T14:19:12.023Z,80.50
2018-06-05T14:21:41.435Z,80.80
2018-06-05T14:29:07.227Z,83.50
2018-06-05T14:31:35.485Z,82.80
2018-06-05T14:34:04.196Z,80.80
2018-06-05T14:36:32.281Z,80.40
2018-06-05T14:39:00.365Z,80.10
2018-06-05T14:41:28.379Z,77.80
2018-06-05T14:43:56.696Z,80.00
2018-06-05T14:46:25.004Z,79.50
2018-06-05T14:48:53.261Z,78.80
2018-06-05T14:51:21.339Z,79.90
2018-06-05T14:53:49.257Z,80.80
2018-06-05T14:56:17.280Z,79.70
2018-06-05T14:58:45.352Z,79.90
2018-06-05T15:01:13.602Z,79.90
2018-06-05T15:03:41.499Z,79.30
2018-06-05T15:06:09.940Z,80.10
2018-06-05T15:08:38.206Z,77.80
2018-06-05T15:11:07.102Z,77.90
2018-06-05T15:13:35.150Z,78.50
2018-06-05T15:16:04.376Z,77.90
2018-06-05T15:18:32.438Z,78.60
2018-06-05T15:21:00.574Z,78.20
2018-06-05T15:23:28.947Z,79.10
2018-06-05T15:25:58.017Z,80.00
2018-06-05T15:30:55.147Z,78.70
2018-06-05T15:33:23.311Z,77.60
2018-06-05T15:35:53.527Z,77.00
2018-06-05T15:38:21.437Z,78.00
2018-06-05T15:40:49.718Z,77.60
2018-06-05T15:43:17.753Z,78.40
2018-06-05T15:45:45.945Z,77.80
2018-06-05T15:48:14.105Z,78.10
2018-06-05T15:50:42.491Z,76.80
2018-06-05T15:53:10.489Z,76.00
2018-06-05T15:55:38.705Z,75.70
2018-06-05T15:58:06.743Z,75.40
2018-06-05T16:00:34.852Z,74.50
2018-06-05T16:03:03.065Z,72.30
2018-06-05T16:05:31.239Z,72.00
2018-06-05T16:07:59.543Z,73.80
2018-06-05T16:10:31.438Z,73.60
2018-06-05T16:13:00.115Z,73.60
2018-06-05T16:15:33.553Z,72.80
2018-06-05T16:18:01.836Z,73.10
2018-06-05T16:20:30.104Z,74.30
2018-06-05T16:22:58.011Z,73.70
2018-06-05T16:25:26.389Z,73.70
2018-06-05T16:27:54.499Z,72.60
2018-06-05T16:30:22.668Z,72.20
2018-06-05T16:32:51.688Z,72.00
2018-06-05T16:35:19.922Z,72.30
2018-06-05T16:37:48.183Z,71.30
2018-06-05T16:40:16.270Z,72.40
2018-06-05T16:42:44.210Z,73.50
2018-06-05T16:45:13.474Z,72.70
2018-06-05T16:47:41.455Z,72.90
2018-06-05T16:52:37.419Z,73.20
2018-06-05T16:55:07.994Z,74.20
2018-06-05T16:57:36.153Z,73.70
2018-06-05T17:00:04.651Z,74.30
2018-06-05T17:02:32.994Z,75.10
2018-06-05T17:05:01.106Z,74.00
2018-06-05T17:07:30.007Z,75.00
2018-06-05T17:09:58.346Z,75.50
2018-06-05T17:12:26.406Z,74.50
2018-06-05T17:14:54.713Z,75.20
2018-06-05T17:17:23.185Z,75.10
2018-06-05T17:19:51.480Z,74.70
2018-06-05T17:22:19.490Z,75.70
2018-06-05T17:24:47.781Z,77.10
2018-06-05T17:27:16.686Z,79.10
2018-06-05T17:29:44.966Z,81.70
2018-06-05T17:32:13.415Z,81.40
2018-06-05T17:34:41.477Z,81.70
2018-06-05T17:37:09.469Z,82.00
2018-06-05T17:39:38.811Z,82.80
2018-06-05T17:42:07.445Z,82.00
2018-06-05T17:44:35.778Z,83.30
2018-06-05T17:47:03.782Z,82.80
2018-06-05T17:49:31.886Z,83.20
2018-06-05T17:52:00.157Z,83.20
2018-06-05T17:54:28.437Z,83.60
2018-06-05T17:56:59.384Z,83.80
2018-06-05T17:59:28.673Z,83.80
2018-06-05T18:01:56.916Z,83.50
2018-06-05T18:04:25.253Z,83.40
2018-06-05T18:06:53.524Z,83.50
2018-06-05T18:09:21.513Z,84.00
2018-06-05T18:11:49.647Z,84.30
2018-06-05T18:14:18.711Z,85.10
2018-06-05T18:16:46.615Z,85.20
2018-06-05T18:19:14.694Z,85.60
2018-06-05T18:21:42.896Z,85.60
2018-06-05T18:24:11.368Z,85.20
2018-06-05T18:26:39.333Z,85.80
2018-06-05T18:29:07.575Z,86.40
2018-06-05T18:31:35.852Z,87.20
2018-06-05T18:34:03.960Z,87.10
2018-06-05T18:36:31.895Z,87.90
2018-06-05T18:39:00.288Z,88.00
2018-06-05T18:41:28.519Z,88.40
2018-06-05T18:43:56.836Z,88.60
2018-06-05T18:46:25.029Z,88.60
2018-06-05T18:48:53.390Z,88.50
2018-06-05T18:51:21.631Z,88.90
2018-06-05T18:53:51.009Z,89.20
2018-06-05T18:56:19.237Z,89.60
2018-06-05T18:58:47.468Z,89.70
2018-06-05T19:01:15.655Z,89.90
2018-06-05T19:03:43.813Z,90.10
2018-06-05T19:06:11.868Z,90.30
2018-06-05T19:08:40.232Z,90.30
2018-06-05T19:11:08.366Z,90.20
2018-06-05T19:13:36.654Z,90.60
2018-06-05T19:16:04.845Z,90.80
2018-06-05T19:18:33.125Z,90.80
2018-06-05T19:21:01.384Z,90.90
2018-06-05T19:23:29.613Z,91.20
2018-06-05T19:25:58.147Z,91.30
2018-06-05T19:28:27.612Z,91.40
2018-06-05T19:30:56.057Z,91.50
2018-06-05T19:33:24.218Z,91.50
2018-06-05T19:35:52.456Z,91.60
2018-06-05T19:38:20.761Z,91.60
2018-06-05T19:40:49.013Z,91.70
2018-06-05T19:43:17.667Z,97.90
2018-06-05T19:45:45.956Z,92.10
2018-06-05T19:48:17.887Z,92.20
2018-06-05T19:50:46.127Z,92.30
2018-06-05T19:53:18.378Z,92.50
2018-06-05T19:55:46.564Z,92.70
2018-06-05T19:58:15.718Z,92.80
2018-06-05T20:00:43.732Z,92.80
2018-06-05T20:03:13.707Z,92.70
2018-06-05T20:05:41.808Z,92.90
2018-06-05T20:08:14.314Z,93.00
2018-06-05T20:10:42.740Z,92.80
2018-06-05T20:13:11.079Z,92.80
2018-06-05T20:15:39.572Z,92.90
2018-06-05T20:18:08.130Z,93.10
2018-06-05T20:20:36.340Z,93.10
2018-06-05T20:23:05.363Z,93.10
2018-06-05T20:25:33.512Z,93.10
2018-06-05T20:28:01.774Z,93.00
2018-06-05T20:30:30.290Z,93.50
2018-06-05T20:32:58.714Z,93.50
2018-06-05T20:35:27.263Z,93.50
2018-06-05T20:37:55.583Z,93.70
2018-06-05T20:40:24.005Z,93.70
2018-06-05T20:42:52.529Z,93.80
2018-06-05T20:45:20.743Z,93.70
2018-06-05T20:47:49.075Z,93.90
2018-06-05T20:50:17.520Z,94.10
2018-06-05T20:52:45.771Z,94.10
2018-06-05T20:55:13.768Z,94.20
2018-06-05T20:57:43.117Z,94.20
2018-06-05T21:00:11.183Z,94.40
2018-06-05T21:02:39.137Z,94.40
2018-06-05T21:05:07.216Z,94.50
2018-06-05T21:07:35.228Z,94.70
2018-06-05T21:10:03.302Z,94.70
2018-06-05T21:12:31.308Z,94.80
2018-06-05T21:14:59.207Z,94.90
2018-06-05T21:17:27.262Z,95.00
2018-06-05T21:19:55.248Z,95.10
2018-06-05T21:22:23.371Z,95.10
2018-06-05T21:24:51.410Z,95.10
2018-06-05T21:27:19.461Z,95.20
2018-06-05T21:29:47.449Z,95.20
2018-06-05T21:32:15.520Z,95.40
2018-06-05T21:34:43.485Z,95.40
2018-06-05T21:37:11.691Z,95.40
2018-06-05T21:39:39.582Z,95.40
2018-06-05T21:42:07.780Z,95.40
2018-06-05T21:44:36.387Z,95.70
2018-06-05T21:47:05.495Z,95.70
2018-06-05T21:49:33.397Z,95.70
2018-06-05T21:52:06.959Z,95.70
2018-06-05T21:54:34.953Z,95.80
2018-06-05T21:57:05.076Z,95.80
2018-06-05T21:59:33.083Z,95.90
2018-06-05T22:02:01.294Z,95.90
2018-06-05T22:04:29.346Z,95.80
2018-06-05T22:06:57.876Z,95.90
2018-06-05T22:09:25.795Z,95.90
2018-06-05T22:11:53.801Z,95.80
2018-06-05T22:14:21.741Z,95.80
2018-06-05T22:16:49.750Z,95.90
2018-06-05T22:19:17.672Z,95.90
2018-06-05T22:21:45.686Z,95.90
2018-06-05T22:24:13.559Z,95.90
2018-06-05T22:26:41.558Z,95.90
2018-06-05T22:29:09.496Z,95.80
2018-06-05T22:31:37.455Z,95.80
2018-06-05T22:34:05.457Z,95.90
2018-06-05T22:36:33.384Z,95.80
2018-06-05T22:39:01.294Z,96.30
2018-06-05T22:41:29.308Z,96.00
2018-06-05T22:43:57.193Z,95.90
2018-06-05T22:46:25.149Z,95.90
2018-06-05T22:48:53.098Z,96.10
2018-06-05T22:51:21.158Z,96.10
2018-06-05T22:53:49.034Z,96.10
2018-06-05T22:56:17.071Z,96.10
2018-06-05T22:58:44.963Z,96.10
2018-06-05T23:01:12.980Z,96.10
2018-06-05T23:03:40.883Z,96.10
2018-06-05T23:06:08.827Z,96.00
2018-06-05T23:08:36.721Z,96.00
2018-06-05T23:11:04.691Z,96.00
2018-06-05T23:13:32.597Z,95.90
2018-06-05T23:16:00.594Z,96.00
2018-06-05T23:18:28.494Z,95.90
2018-06-05T23:20:56.451Z,95.90
2018-06-05T23:23:24.342Z,95.80
2018-06-05T23:25:52.386Z,95.90
2018-06-05T23:28:20.320Z,96.00
2018-06-05T23:30:48.257Z,96.10
2018-06-05T23:33:16.185Z,96.30
2018-06-05T23:35:44.119Z,96.20
2018-06-05T23:38:12.068Z,96.30
2018-06-05T23:40:40.039Z,96.20
2018-06-05T23:43:07.925Z,96.10
2018-06-05T23:45:35.913Z,96.10
2018-06-05T23:48:03.832Z,96.20
2018-06-05T23:50:31.858Z,96.30
2018-06-05T23:52:59.766Z,96.40
2018-06-05T23:55:27.791Z,96.60
2018-06-05T23:57:55.725Z,96.70
